sensor_id;sensor_type;location;lat;lon;timestamp;pressure;altitude;pressure_sealevel;temperature;humidity
5283;BME280;15376;48.540;9.268;2023-04-08T00:02:08;97757.69;;;6.84;100.00
5283;BME280;15376;48.540;9.268;2023-04-08T00:04:33;97761.84;;;6.87;100.00
5283;BME280;15376;48.540;9.268;2023-04-08T00:06:58;97764.63;;;6.85;100.00
5283;BME280;15376;48.540;9.268;2023-04-08T00:09:24;97761.94;;;6.77;100.00
5283;BME280;15376;48.540;9.268;2023-04-08T00:11:49;97757.78;;;6.75;100.00
5283;BME280;15376;48.540;9.268;2023-04-08T00:14:15;97767.41;;;6.84;100.00
5283;BME280;15376;48.540;9.268;2023-04-08T00:16:40;97763.78;;;6.85;100.00
5283;BME280;15376;48.540;9.268;2023-04-08T00:19:05;97732.00;;;6.68;100.00
5283;BME280;15376;48.540;9.268;2023-04-08T00:21:31;97765.31;;;6.87;100.00
5283;BME280;15376;48.540;9.268;2023-04-08T00:23:56;97750.41;;;6.78;100.00
5283;BME280;15376;48.540;9.268;2023-04-08T00:26:22;97764.63;;;6.85;100.00
5283;BME280;15376;48.540;9.268;2023-04-08T00:28:47;97767.25;;;6.85;100.00
5283;BME280;15376;48.540;9.268;2023-04-08T00:31:13;97763.78;;;6.85;100.00
5283;BME280;15376;48.540;9.268;2023-04-08T00:33:38;97757.69;;;6.84;100.00
5283;BME280;15376;48.540;9.268;2023-04-08T00:36:03;97764.63;;;6.85;100.00
5283;BME280;15376;48.540;9.268;2023-04-08T00:38:29;97767.94;;;6.87;100.00
5283;BME280;15376;48.540;9.268;2023-04-08T00:40:55;97767.94;;;6.87;100.00
5283;BME280;15376;48.540;9.268;2023-04-08T00:43:20;97730.88;;;6.71;100.00
5283;BME280;15376;48.540;9.268;2023-04-08T00:45:46;97763.66;;;6.86;100.00
5283;BME280;15376;48.540;9.268;2023-04-08T00:48:12;97767.63;;;6.90;100.00
5283;BME280;15376;48.540;9.268;2023-04-08T00:50:38;97751.56;;;6.84;100.00
5283;BME280;15376;48.540;9.268;2023-04-08T00:53:03;97765.81;;;6.91;100.00
5283;BME280;15376;48.540;9.268;2023-04-08T00:55:29;97767.34;;;6.93;100.00
5283;BME280;15376;48.540;9.268;2023-04-08T00:57:55;97768.31;;;6.92;100.00
5283;BME280;15376;48.540;9.268;2023-04-08T01:00:21;97770.97;;;6.92;100.00
5283;BME280;15376;48.540;9.268;2023-04-08T01:05:25;97767.63;;;6.90;100.00
5283;BME280;15376;48.540;9.268;2023-04-08T01:07:52;97758.50;;;6.85;100.00
5283;BME280;15376;48.540;9.268;2023-04-08T01:10:24;97774.56;;;6.91;100.00
5283;BME280;15376;48.540;9.268;2023-04-08T01:13:05;97780.22;;;6.96;100.00
5283;BME280;15376;48.540;9.268;2023-04-08T01:15:34;97777.38;;;6.90;100.00
5283;BME280;15376;48.540;9.268;2023-04-08T01:18:05;97777.66;;;6.87;100.00
5283;BME280;15376;48.540;9.268;2023-04-08T01:20:31;97779.09;;;6.81;100.00
5283;BME280;15376;48.540;9.268;2023-04-08T01:23:05;97779.31;;;6.88;100.00
5283;BME280;15376;48.540;9.268;2023-04-08T01:25:35;97752.66;;;6.73;100.00
5283;BME280;15376;48.540;9.268;2023-04-08T01:28:08;97780.16;;;6.88;100.00
5283;BME280;15376;48.540;9.268;2023-04-08T01:30:37;97774.34;;;6.85;100.00
5283;BME280;15376;48.540;9.268;2023-04-08T01:33:03;97779.28;;;6.80;100.00
5283;BME280;15376;48.540;9.268;2023-04-08T01:35:30;97777.81;;;6.85;100.00
5283;BME280;15376;48.540;9.268;2023-04-08T01:37:56;97770.19;;;6.82;100.00
5283;BME280;15376;48.540;9.268;2023-04-08T01:40:23;97780.16;;;6.88;100.00
5283;BME280;15376;48.540;9.268;2023-04-08T01:42:51;97770.44;;;6.89;100.00
5283;BME280;15376;48.540;9.268;2023-04-08T01:45:18;97762.97;;;6.84;100.00
5283;BME280;15376;48.540;9.268;2023-04-08T01:47:45;97747.75;;;6.78;100.00
5283;BME280;15376;48.540;9.268;2023-04-08T01:50:14;97775.94;;;6.95;100.00
5283;BME280;15376;48.540;9.268;2023-04-08T01:52:42;97771.19;;;6.99;100.00
5283;BME280;15376;48.540;9.268;2023-04-08T01:55:08;97770.44;;;6.89;100.00
5283;BME280;15376;48.540;9.268;2023-04-08T01:57:36;97766.66;;;6.91;100.00
5283;BME280;15376;48.540;9.268;2023-04-08T02:00:07;97751.88;;;6.81;100.00
5283;BME280;15376;48.540;9.268;2023-04-08T02:02:35;97759.66;;;6.82;100.00
5283;BME280;15376;48.540;9.268;2023-04-08T02:05:02;97771.94;;;6.91;100.00
5283;BME280;15376;48.540;9.268;2023-04-08T02:07:27;97772.63;;;6.93;100.00
5283;BME280;15376;48.540;9.268;2023-04-08T02:09:53;97771.94;;;6.91;100.00
5283;BME280;15376;48.540;9.268;2023-04-08T02:12:18;97769.13;;;6.93;100.00
5283;BME280;15376;48.540;9.268;2023-04-08T02:14:44;97773.13;;;6.97;100.00
5283;BME280;15376;48.540;9.268;2023-04-08T02:17:33;97768.00;;;6.95;100.00
5283;BME280;15376;48.540;9.268;2023-04-08T02:20:12;97771.03;;;7.00;100.00
5283;BME280;15376;48.540;9.268;2023-04-08T02:23:02;97769.38;;;6.99;100.00
5283;BME280;15376;48.540;9.268;2023-04-08T02:25:33;97772.53;;;7.03;100.00
5283;BME280;15376;48.540;9.268;2023-04-08T02:28:02;97737.69;;;6.82;100.00
5283;BME280;15376;48.540;9.268;2023-04-08T02:30:30;97781.06;;;6.97;100.00
5283;BME280;15376;48.540;9.268;2023-04-08T02:32:57;97775.94;;;6.95;100.00
5283;BME280;15376;48.540;9.268;2023-04-08T02:35:23;97778.13;;;7.00;100.00
5283;BME280;15376;48.540;9.268;2023-04-08T02:37:48;97765.38;;;6.95;100.00
5283;BME280;15376;48.540;9.268;2023-04-08T02:42:53;97773.28;;;6.95;100.00
5283;BME280;15376;48.540;9.268;2023-04-08T02:45:19;97772.63;;;6.93;100.00
5283;BME280;15376;48.540;9.268;2023-04-08T02:47:44;97759.34;;;6.85;100.00
5283;BME280;15376;48.540;9.268;2023-04-08T02:50:10;97747.75;;;6.78;100.00
5283;BME280;15376;48.540;9.268;2023-04-08T02:52:35;97780.69;;;6.92;100.00
5283;BME280;15376;48.540;9.268;2023-04-08T02:55:01;97761.31;;;6.83;100.00
5283;BME280;15376;48.540;9.268;2023-04-08T02:57:26;97782.19;;;6.94;100.00
5283;BME280;15376;48.540;9.268;2023-04-08T02:59:51;97783.16;;;6.93;100.00
5283;BME280;15376;48.540;9.268;2023-04-08T03:02:17;97776.91;;;6.94;100.00
5283;BME280;15376;48.540;9.268;2023-04-08T03:04:42;97787.09;;;6.89;100.00
5283;BME280;15376;48.540;9.268;2023-04-08T03:07:07;97754.63;;;6.71;100.00
5283;BME280;15376;48.540;9.268;2023-04-08T03:09:33;97758.09;;;6.72;100.00
5283;BME280;15376;48.540;9.268;2023-04-08T03:11:58;97779.94;;;6.82;100.00
5283;BME280;15376;48.540;9.268;2023-04-08T03:14:23;97775.63;;;6.81;100.00
5283;BME280;15376;48.540;9.268;2023-04-08T03:16:49;97782.72;;;6.80;100.00
5283;BME280;15376;48.540;9.268;2023-04-08T03:19:14;97785.75;;;6.85;100.00
5283;BME280;15376;48.540;9.268;2023-04-08T03:21:40;97786.72;;;6.84;100.00
5283;BME280;15376;48.540;9.268;2023-04-08T03:24:05;97747.63;;;6.62;100.00
5283;BME280;15376;48.540;9.268;2023-04-08T03:26:30;97779.63;;;6.85;100.00
5283;BME280;15376;48.540;9.268;2023-04-08T03:28:56;97784.59;;;6.88;100.00
5283;BME280;15376;48.540;9.268;2023-04-08T03:31:21;97787.69;;;6.83;100.00
5283;BME280;15376;48.540;9.268;2023-04-08T03:33:47;97789.66;;;6.81;100.00
5283;BME280;15376;48.540;9.268;2023-04-08T03:36:12;97789.66;;;6.81;100.00
5283;BME280;15376;48.540;9.268;2023-04-08T03:38:38;97792.94;;;6.75;100.00
5283;BME280;15376;48.540;9.268;2023-04-08T03:41:03;97791.44;;;6.73;100.00
5283;BME280;15376;48.540;9.268;2023-04-08T03:43:28;97792.69;;;6.68;100.00
5283;BME280;15376;48.540;9.268;2023-04-08T03:45:55;97763.97;;;6.48;100.00
5283;BME280;15376;48.540;9.268;2023-04-08T03:48:20;97786.81;;;6.57;100.00
5283;BME280;15376;48.540;9.268;2023-04-08T03:50:45;97792.38;;;6.54;100.00
5283;BME280;15376;48.540;9.268;2023-04-08T03:53:11;97796.84;;;6.53;100.00
5283;BME280;15376;48.540;9.268;2023-04-08T03:55:37;97786.50;;;6.60;100.00
5283;BME280;15376;48.540;9.268;2023-04-08T03:58:02;97789.59;;;6.55;100.00
5283;BME280;15376;48.540;9.268;2023-04-08T04:00:28;97786.03;;;6.47;100.00
5283;BME280;15376;48.540;9.268;2023-04-08T04:02:53;97788.00;;;6.45;100.00
5283;BME280;15376;48.540;9.268;2023-04-08T04:05:20;97794.88;;;6.38;100.00
5283;BME280;15376;48.540;9.268;2023-04-08T04:07:45;97786.44;;;6.34;100.00
5283;BME280;15376;48.540;9.268;2023-04-08T04:10:10;97780.88;;;6.37;100.00
5283;BME280;15376;48.540;9.268;2023-04-08T04:12:36;97784.25;;;6.29;100.00
5283;BME280;15376;48.540;9.268;2023-04-08T04:15:01;97783.66;;;6.35;100.00
5283;BME280;15376;48.540;9.268;2023-04-08T04:17:27;97791.41;;;6.37;100.00
5283;BME280;15376;48.540;9.268;2023-04-08T04:19:52;97789.59;;;6.38;100.00
5283;BME280;15376;48.540;9.268;2023-04-08T04:22:17;97792.84;;;6.31;100.00
5283;BME280;15376;48.540;9.268;2023-04-08T04:24:47;97787.84;;;6.28;100.00
5283;BME280;15376;48.540;9.268;2023-04-08T04:27:12;97796.84;;;6.35;100.00
5283;BME280;15376;48.540;9.268;2023-04-08T04:29:38;97790.09;;;6.23;100.00
5283;BME280;15376;48.540;9.268;2023-04-08T04:32:03;97797.72;;;6.26;100.00
5283;BME280;15376;48.540;9.268;2023-04-08T04:34:29;97798.09;;;6.31;100.00
5283;BME280;15376;48.540;9.268;2023-04-08T04:36:54;97796.44;;;6.30;100.00
5283;BME280;15376;48.540;9.268;2023-04-08T04:39:19;97786.94;;;6.20;100.00
5283;BME280;15376;48.540;9.268;2023-04-08T04:41:45;97807.19;;;6.19;100.00
5283;BME280;15376;48.540;9.268;2023-04-08T04:44:11;97810.81;;;6.18;100.00
5283;BME280;15376;48.540;9.268;2023-04-08T04:46:37;97804.84;;;6.16;100.00
5283;BME280;15376;48.540;9.268;2023-04-08T04:49:02;97799.56;;;6.16;100.00
5283;BME280;15376;48.540;9.268;2023-04-08T04:51:30;97778.00;;;6.03;100.00
5283;BME280;15376;48.540;9.268;2023-04-08T04:53:55;97805.53;;;6.18;100.00
5283;BME280;15376;48.540;9.268;2023-04-08T04:56:21;97811.34;;;6.22;100.00
5283;BME280;15376;48.540;9.268;2023-04-08T04:58:46;97816.47;;;6.23;100.00
5283;BME280;15376;48.540;9.268;2023-04-08T05:01:11;97823.25;;;6.26;100.00
5283;BME280;15376;48.540;9.268;2023-04-08T05:03:37;97830.06;;;6.28;100.00
5283;BME280;15376;48.540;9.268;2023-04-08T05:06:02;97826.19;;;6.23;100.00
5283;BME280;15376;48.540;9.268;2023-04-08T05:08:27;97799.09;;;6.03;100.00
5283;BME280;15376;48.540;9.268;2023-04-08T05:10:53;97825.06;;;6.25;100.00
5283;BME280;15376;48.540;9.268;2023-04-08T05:13:20;97816.09;;;6.18;100.00
5283;BME280;15376;48.540;9.268;2023-04-08T05:15:45;97827.16;;;6.22;100.00
5283;BME280;15376;48.540;9.268;2023-04-08T05:18:11;97828.69;;;6.24;100.00
5283;BME280;15376;48.540;9.268;2023-04-08T05:20:36;97832.84;;;6.27;100.00
5283;BME280;15376;48.540;9.268;2023-04-08T05:23:01;97836.69;;;6.32;100.00
5283;BME280;15376;48.540;9.268;2023-04-08T05:25:27;97801.38;;;6.16;100.00
5283;BME280;15376;48.540;9.268;2023-04-08T05:27:53;97844.31;;;6.35;100.00
5283;BME280;15376;48.540;9.268;2023-04-08T05:30:19;97829.75;;;6.31;100.00
5283;BME280;15376;48.540;9.268;2023-04-08T05:32:45;97843.03;;;6.40;100.00
5283;BME280;15376;48.540;9.268;2023-04-08T05:35:10;97841.38;;;6.39;100.00
5283;BME280;15376;48.540;9.268;2023-04-08T05:37:35;97843.03;;;6.40;100.00
5283;BME280;15376;48.540;9.268;2023-04-08T05:40:01;97840.75;;;6.45;100.00
5283;BME280;15376;48.540;9.268;2023-04-08T05:42:26;97838.66;;;6.48;100.00
5283;BME280;15376;48.540;9.268;2023-04-08T05:44:52;97849.59;;;6.53;100.00
5283;BME280;15376;48.540;9.268;2023-04-08T05:47:17;97850.00;;;6.58;100.00
5283;BME280;15376;48.540;9.268;2023-04-08T05:49:42;97847.59;;;6.65;100.00
5283;BME280;15376;48.540;9.268;2023-04-08T05:52:08;97819.00;;;6.60;100.00
5283;BME280;15376;48.540;9.268;2023-04-08T05:54:33;97844.75;;;6.76;100.00
5283;BME280;15376;48.540;9.268;2023-04-08T05:56:58;97847.72;;;6.81;100.00
5283;BME280;15376;48.540;9.268;2023-04-08T05:59:23;97853.47;;;6.94;100.00
5283;BME280;15376;48.540;9.268;2023-04-08T06:01:49;97849.25;;;7.01;100.00
5283;BME280;15376;48.540;9.268;2023-04-08T06:04:14;97855.06;;;7.05;100.00
5283;BME280;15376;48.540;9.268;2023-04-08T06:06:41;97856.81;;;7.14;100.00
5283;BME280;15376;48.540;9.268;2023-04-08T06:09:07;97857.06;;;7.29;100.00
5283;BME280;15376;48.540;9.268;2023-04-08T06:11:34;97835.41;;;7.25;100.00
5283;BME280;15376;48.540;9.268;2023-04-08T06:13:59;97856.47;;;7.35;100.00
5283;BME280;15376;48.540;9.268;2023-04-08T06:16:24;97844.00;;;7.27;100.00
5283;BME280;15376;48.540;9.268;2023-04-08T06:18:50;97856.16;;;7.38;100.00
5283;BME280;15376;48.540;9.268;2023-04-08T06:21:16;97848.69;;;7.33;100.00
5283;BME280;15376;48.540;9.268;2023-04-08T06:23:41;97850.66;;;7.31;100.00
5283;BME280;15376;48.540;9.268;2023-04-08T06:26:07;97869.44;;;7.46;100.00
5283;BME280;15376;48.540;9.268;2023-04-08T06:28:32;97864.75;;;7.40;100.00
5283;BME280;15376;48.540;9.268;2023-04-08T06:30:58;97837.50;;;7.40;100.00
5283;BME280;15376;48.540;9.268;2023-04-08T06:33:24;97869.03;;;7.59;100.00
5283;BME280;15376;48.540;9.268;2023-04-08T06:35:49;97868.66;;;7.54;100.00
5283;BME280;15376;48.540;9.268;2023-04-08T06:38:15;97873.78;;;7.55;100.00
5283;BME280;15376;48.540;9.268;2023-04-08T06:40:40;97875.75;;;7.53;100.00
5283;BME280;15376;48.540;9.268;2023-04-08T06:43:06;97870.66;;;7.60;100.00
5283;BME280;15376;48.540;9.268;2023-04-08T06:45:35;97872.97;;;7.55;100.00
5283;BME280;15376;48.540;9.268;2023-04-08T06:48:00;97874.13;;;7.60;100.00
5283;BME280;15376;48.540;9.268;2023-04-08T06:50:25;97866.19;;;7.52;100.00
5283;BME280;15376;48.540;9.268;2023-04-08T06:52:51;97868.81;;;7.52;100.00
5283;BME280;15376;48.540;9.268;2023-04-08T06:55:16;97872.81;;;7.56;100.00
5283;BME280;15376;48.540;9.268;2023-04-08T06:57:42;97871.25;;;7.46;100.00
5283;BME280;15376;48.540;9.268;2023-04-08T07:00:08;97871.09;;;7.47;100.00
5283;BME280;15376;48.540;9.268;2023-04-08T07:02:33;97876.38;;;7.47;100.00
5283;BME280;15376;48.540;9.268;2023-04-08T07:04:59;97875.31;;;7.40;100.00
5283;BME280;15376;48.540;9.268;2023-04-08T07:07:24;97868.38;;;7.39;100.00
5283;BME280;15376;48.540;9.268;2023-04-08T07:09:50;97874.94;;;7.53;100.00
5283;BME280;15376;48.540;9.268;2023-04-08T07:12:15;97878.56;;;7.52;100.00
5283;BME280;15376;48.540;9.268;2023-04-08T07:14:41;97871.19;;;7.63;100.00
5283;BME280;15376;48.540;9.268;2023-04-08T07:17:06;97847.25;;;7.39;100.00
5283;BME280;15376;48.540;9.268;2023-04-08T07:19:32;97873.69;;;7.65;100.00
5283;BME280;15376;48.540;9.268;2023-04-08T07:21:57;97879.41;;;7.60;100.00
5283;BME280;15376;48.540;9.268;2023-04-08T07:24:22;97885.44;;;7.70;100.00
5283;BME280;15376;48.540;9.268;2023-04-08T07:26:48;97892.63;;;7.60;100.00
5283;BME280;15376;48.540;9.268;2023-04-08T07:29:13;97888.84;;;7.63;100.00
5283;BME280;15376;48.540;9.268;2023-04-08T07:31:42;97897.31;;;7.66;100.00
5283;BME280;15376;48.540;9.268;2023-04-08T07:34:08;97900.63;;;7.68;100.00
5283;BME280;15376;48.540;9.268;2023-04-08T07:36:34;97884.72;;;7.60;100.00
5283;BME280;15376;48.540;9.268;2023-04-08T07:38:59;97897.69;;;7.72;100.00
5283;BME280;15376;48.540;9.268;2023-04-08T07:41:24;97899.66;;;7.69;100.00
5283;BME280;15376;48.540;9.268;2023-04-08T07:43:49;97894.63;;;7.58;100.00
5283;BME280;15376;48.540;9.268;2023-04-08T07:46:15;97901.47;;;7.69;100.00
5283;BME280;15376;48.540;9.268;2023-04-08T07:48:40;97906.59;;;7.70;100.00
5283;BME280;15376;48.540;9.268;2023-04-08T07:51:07;97912.16;;;7.85;100.00
5283;BME280;15376;48.540;9.268;2023-04-08T07:53:33;97898.41;;;7.82;100.00
5283;BME280;15376;48.540;9.268;2023-04-08T07:56:00;97887.78;;;7.74;100.00
5283;BME280;15376;48.540;9.268;2023-04-08T07:58:25;97915.16;;;7.90;100.00
5283;BME280;15376;48.540;9.268;2023-04-08T08:00:51;97901.81;;;8.00;100.00
5283;BME280;15376;48.540;9.268;2023-04-08T08:03:17;97906.41;;;7.90;100.00
5283;BME280;15376;48.540;9.268;2023-04-08T08:05:42;97902.28;;;8.21;100.00
5283;BME280;15376;48.540;9.268;2023-04-08T08:08:08;97905.38;;;8.43;100.00
5283;BME280;15376;48.540;9.268;2023-04-08T08:10:36;97904.41;;;8.52;100.00
5283;BME280;15376;48.540;9.268;2023-04-08T08:13:03;97903.47;;;8.61;100.00
5283;BME280;15376;48.540;9.268;2023-04-08T08:15:28;97903.34;;;8.71;100.00
5283;BME280;15376;48.540;9.268;2023-04-08T08:17:53;97905.19;;;8.78;100.00
5283;BME280;15376;48.540;9.268;2023-04-08T08:20:19;97900.91;;;8.93;100.00
5283;BME280;15376;48.540;9.268;2023-04-08T08:22:44;97916.19;;;9.08;100.00
5283;BME280;15376;48.540;9.268;2023-04-08T08:25:10;97910.03;;;8.99;100.00
5283;BME280;15376;48.540;9.268;2023-04-08T08:27:35;97908.09;;;9.17;100.00
5283;BME280;15376;48.540;9.268;2023-04-08T08:30:02;97908.38;;;8.98;100.00
5283;BME280;15376;48.540;9.268;2023-04-08T08:32:28;97918.44;;;8.86;100.00
5283;BME280;15376;48.540;9.268;2023-04-08T08:34:53;97896.91;;;8.73;100.00
5283;BME280;15376;48.540;9.268;2023-04-08T08:37:20;97909.31;;;8.73;100.00
5283;BME280;15376;48.540;9.268;2023-04-08T08:39:45;97916.28;;;8.90;100.00
5283;BME280;15376;48.540;9.268;2023-04-08T08:42:24;97918.16;;;9.06;100.00
5283;BME280;15376;48.540;9.268;2023-04-08T08:44:50;97933.22;;;9.05;100.00
5283;BME280;15376;48.540;9.268;2023-04-08T08:47:16;97929.88;;;8.95;100.00
5283;BME280;15376;48.540;9.268;2023-04-08T08:49:41;97931.38;;;8.97;100.00
5283;BME280;15376;48.540;9.268;2023-04-08T08:52:07;97902.50;;;8.70;100.00
5283;BME280;15376;48.540;9.268;2023-04-08T08:54:32;97919.41;;;8.77;100.00
5283;BME280;15376;48.540;9.268;2023-04-08T08:57:00;97930.72;;;8.95;100.00
5283;BME280;15376;48.540;9.268;2023-04-08T08:59:26;97930.19;;;8.92;100.00
5283;BME280;15376;48.540;9.268;2023-04-08T09:01:51;97936.50;;;8.99;100.00
5283;BME280;15376;48.540;9.268;2023-04-08T09:04:18;97934.22;;;9.04;100.00
5283;BME280;15376;48.540;9.268;2023-04-08T09:06:49;97925.78;;;9.09;100.00
5283;BME280;15376;48.540;9.268;2023-04-08T09:09:16;97941.19;;;9.29;100.00
5283;BME280;15376;48.540;9.268;2023-04-08T09:11:43;97942.88;;;9.63;100.00
5283;BME280;15376;48.540;9.268;2023-04-08T09:14:23;97942.06;;;9.70;100.00
5283;BME280;15376;48.540;9.268;2023-04-08T09:16:49;97942.72;;;9.56;100.00
5283;BME280;15376;48.540;9.268;2023-04-08T09:19:15;97951.81;;;9.38;100.00
5283;BME280;15376;48.540;9.268;2023-04-08T09:21:41;97944.06;;;9.52;100.00
5283;BME280;15376;48.540;9.268;2023-04-08T09:24:08;97942.56;;;9.74;100.00
5283;BME280;15376;48.540;9.268;2023-04-08T09:26:34;97936.69;;;10.35;100.00
5283;BME280;15376;48.540;9.268;2023-04-08T09:29:05;97937.63;;;10.51;100.00
5283;BME280;15376;48.540;9.268;2023-04-08T09:31:33;97919.59;;;10.38;100.00
5283;BME280;15376;48.540;9.268;2023-04-08T09:33:59;97939.41;;;10.66;100.00
5283;BME280;15376;48.540;9.268;2023-04-08T09:36:28;97934.09;;;10.97;100.00
5283;BME280;15376;48.540;9.268;2023-04-08T09:38:54;97935.50;;;11.39;100.00
5283;BME280;15376;48.540;9.268;2023-04-08T09:41:21;97927.81;;;11.90;100.00
5283;BME280;15376;48.540;9.268;2023-04-08T09:43:52;97930.25;;;11.77;97.70
5283;BME280;15376;48.540;9.268;2023-04-08T09:46:44;97936.72;;;11.74;97.29
5283;BME280;15376;48.540;9.268;2023-04-08T09:49:17;97945.13;;;11.63;95.17
5283;BME280;15376;48.540;9.268;2023-04-08T09:51:52;97939.84;;;11.09;94.13
5283;BME280;15376;48.540;9.268;2023-04-08T09:54:22;97939.56;;;11.27;95.33
5283;BME280;15376;48.540;9.268;2023-04-08T09:57:00;97937.09;;;11.48;91.82
5283;BME280;15376;48.540;9.268;2023-04-08T09:59:30;97936.31;;;12.23;91.51
5283;BME280;15376;48.540;9.268;2023-04-08T10:02:00;97933.19;;;12.63;88.20
5283;BME280;15376;48.540;9.268;2023-04-08T10:04:31;97939.16;;;12.21;82.73
5283;BME280;15376;48.540;9.268;2023-04-08T10:07:03;97932.50;;;12.02;87.20
5283;BME280;15376;48.540;9.268;2023-04-08T10:09:30;97939.13;;;12.80;84.85
5283;BME280;15376;48.540;9.268;2023-04-08T10:11:56;97935.22;;;13.69;79.04
5283;BME280;15376;48.540;9.268;2023-04-08T10:14:22;97927.28;;;14.32;76.83
5283;BME280;15376;48.540;9.268;2023-04-08T10:16:47;97935.56;;;14.72;75.27
5283;BME280;15376;48.540;9.268;2023-04-08T10:19:51;97938.66;;;15.36;69.30
5283;BME280;15376;48.540;9.268;2023-04-08T10:25:27;97937.91;;;15.62;69.20
5283;BME280;15376;48.540;9.268;2023-04-08T10:27:53;97941.44;;;15.01;64.37
5283;BME280;15376;48.540;9.268;2023-04-08T10:32:58;97940.13;;;14.84;62.17
5283;BME280;15376;48.540;9.268;2023-04-08T10:35:31;97931.31;;;15.51;59.53
5283;BME280;15376;48.540;9.268;2023-04-08T10:37:57;97924.75;;;16.13;58.90
5283;BME280;15376;48.540;9.268;2023-04-08T10:40:23;97940.25;;;15.98;58.45
5283;BME280;15376;48.540;9.268;2023-04-08T10:42:58;97930.91;;;15.54;58.36
5283;BME280;15376;48.540;9.268;2023-04-08T10:45:24;97919.84;;;13.99;61.93
5283;BME280;15376;48.540;9.268;2023-04-08T10:47:49;97934.81;;;13.30;68.20
5283;BME280;15376;48.540;9.268;2023-04-08T10:50:17;97922.72;;;13.13;68.01
5283;BME280;15376;48.540;9.268;2023-04-08T10:52:46;97942.47;;;13.54;66.54
5283;BME280;15376;48.540;9.268;2023-04-08T10:55:11;97935.72;;;13.01;67.28
5283;BME280;15376;48.540;9.268;2023-04-08T10:57:37;97925.19;;;12.19;72.50
5283;BME280;15376;48.540;9.268;2023-04-08T11:00:08;97934.25;;;12.10;73.47
5283;BME280;15376;48.540;9.268;2023-04-08T11:02:37;97927.34;;;11.86;72.09
5283;BME280;15376;48.540;9.268;2023-04-08T11:05:02;97923.59;;;11.27;75.72
5283;BME280;15376;48.540;9.268;2023-04-08T11:07:28;97928.44;;;11.00;78.56
5283;BME280;15376;48.540;9.268;2023-04-08T11:09:53;97919.94;;;11.05;78.87
5283;BME280;15376;48.540;9.268;2023-04-08T11:12:20;97937.19;;;11.09;78.13
5283;BME280;15376;48.540;9.268;2023-04-08T11:14:46;97921.53;;;10.83;76.76
5283;BME280;15376;48.540;9.268;2023-04-08T11:17:14;97923.66;;;10.57;80.10
5283;BME280;15376;48.540;9.268;2023-04-08T11:19:40;97928.00;;;10.50;80.07
5283;BME280;15376;48.540;9.268;2023-04-08T11:22:06;97927.47;;;10.62;80.60
5283;BME280;15376;48.540;9.268;2023-04-08T11:24:34;97926.03;;;10.44;80.39
5283;BME280;15376;48.540;9.268;2023-04-08T11:27:03;97925.75;;;10.39;80.50
5283;BME280;15376;48.540;9.268;2023-04-08T11:29:30;97929.72;;;10.18;80.59
5283;BME280;15376;48.540;9.268;2023-04-08T11:31:56;97921.75;;;10.18;80.84
5283;BME280;15376;48.540;9.268;2023-04-08T11:34:22;97927.09;;;10.26;81.67
5283;BME280;15376;48.540;9.268;2023-04-08T11:36:49;97921.09;;;10.16;80.67
5283;BME280;15376;48.540;9.268;2023-04-08T11:39:15;97936.72;;;10.27;76.17
5283;BME280;15376;48.540;9.268;2023-04-08T11:41:40;97933.22;;;10.19;78.32
5283;BME280;15376;48.540;9.268;2023-04-08T11:44:06;97937.38;;;10.13;79.08
5283;BME280;15376;48.540;9.268;2023-04-08T11:46:31;97925.09;;;10.28;79.80
5283;BME280;15376;48.540;9.268;2023-04-08T11:49:02;97935.34;;;10.40;78.73
5283;BME280;15376;48.540;9.268;2023-04-08T11:51:27;97933.31;;;10.50;76.67
5283;BME280;15376;48.540;9.268;2023-04-08T11:53:53;97932.34;;;10.43;74.88
5283;BME280;15376;48.540;9.268;2023-04-08T11:56:20;97935.63;;;10.53;78.44
5283;BME280;15376;48.540;9.268;2023-04-08T11:58:48;97932.47;;;10.57;76.99
5283;BME280;15376;48.540;9.268;2023-04-08T12:01:14;97927.97;;;10.58;76.68
5283;BME280;15376;48.540;9.268;2023-04-08T12:03:53;97924.31;;;10.59;75.37
5283;BME280;15376;48.540;9.268;2023-04-08T12:06:19;97921.19;;;10.47;74.50
5283;BME280;15376;48.540;9.268;2023-04-08T12:08:45;97931.34;;;10.44;75.98
5283;BME280;15376;48.540;9.268;2023-04-08T12:11:10;97931.06;;;10.78;75.65
5283;BME280;15376;48.540;9.268;2023-04-08T12:13:36;97927.03;;;10.82;75.05
5283;BME280;15376;48.540;9.268;2023-04-08T12:16:01;97924.66;;;10.95;75.17
5283;BME280;15376;48.540;9.268;2023-04-08T12:18:27;97934.88;;;10.75;72.90
5283;BME280;15376;48.540;9.268;2023-04-08T12:20:52;97935.31;;;10.87;74.04
5283;BME280;15376;48.540;9.268;2023-04-08T12:23:18;97943.44;;;10.85;72.72
5283;BME280;15376;48.540;9.268;2023-04-08T12:25:44;97940.03;;;11.08;74.87
5283;BME280;15376;48.540;9.268;2023-04-08T12:28:09;97928.75;;;10.75;71.47
5283;BME280;15376;48.540;9.268;2023-04-08T12:30:35;97935.91;;;10.66;70.60
5283;BME280;15376;48.540;9.268;2023-04-08T12:33:01;97941.75;;;10.92;70.35
5283;BME280;15376;48.540;9.268;2023-04-08T12:35:26;97931.78;;;10.63;69.67
5283;BME280;15376;48.540;9.268;2023-04-08T12:37:52;97939.91;;;10.62;71.09
5283;BME280;15376;48.540;9.268;2023-04-08T12:40:18;97933.56;;;10.71;68.34
5283;BME280;15376;48.540;9.268;2023-04-08T12:42:43;97928.13;;;10.64;69.73
5283;BME280;15376;48.540;9.268;2023-04-08T12:45:08;97926.19;;;10.42;69.13
5283;BME280;15376;48.540;9.268;2023-04-08T12:47:34;97928.34;;;10.47;68.73
5283;BME280;15376;48.540;9.268;2023-04-08T12:49:59;97935.56;;;10.69;69.91
5283;BME280;15376;48.540;9.268;2023-04-08T12:52:25;97935.31;;;10.87;70.68
5283;BME280;15376;48.540;9.268;2023-04-08T12:54:50;97937.06;;;11.02;66.96
5283;BME280;15376;48.540;9.268;2023-04-08T12:57:15;97932.38;;;11.13;66.31
5283;BME280;15376;48.540;9.268;2023-04-08T12:59:41;97923.50;;;10.89;65.00
5283;BME280;15376;48.540;9.268;2023-04-08T13:02:06;97934.44;;;10.94;67.83
5283;BME280;15376;48.540;9.268;2023-04-08T13:04:32;97934.38;;;11.11;67.91
5283;BME280;15376;48.540;9.268;2023-04-08T13:06:57;97929.91;;;11.03;66.46
5283;BME280;15376;48.540;9.268;2023-04-08T13:09:23;97927.13;;;10.96;65.58
5283;BME280;15376;48.540;9.268;2023-04-08T13:11:49;97932.44;;;10.96;65.46
5283;BME280;15376;48.540;9.268;2023-04-08T13:14:14;97933.28;;;10.97;67.12
5283;BME280;15376;48.540;9.268;2023-04-08T13:16:40;97937.88;;;10.72;65.97
5283;BME280;15376;48.540;9.268;2023-04-08T13:19:05;97938.69;;;10.33;70.06